Date,TemperatureHighF,TemperatureAvgF,TemperatureLowF,DewpointHighF,DewpointAvgF,DewpointLowF,HumidityHigh,HumidityAvg,HumidityLow,PressureMaxIn,PressureMinIn,WindSpeedMaxMPH,WindSpeedAvgMPH,GustSpeedMaxMPH,PrecipitationSumIn
2013-1-1,47.7,39.7,34.6,45.7,35.6,26.5,93,85,73,29.95,29.82,4,0,4,0.45
2013-1-2,43.1,39.8,37.3,41.1,35.1,32.2,93,83,71,29.97,29.79,10,1,11,0.01
2013-1-3,41.4,35.8,30.0,35.4,30.0,21.6,90,80,64,30.11,29.93,13,1,13,0.00
2013-1-4,39.2,31.2,26.3,22.6,20.4,16.7,75,65,40,30.18,30.09,19,3,21,0.00
2013-1-5,47.6,34.4,22.7,32.3,21.9,16.3,84,63,30,30.22,30.06,17,1,21,0.01
2013-1-6,47.4,39.1,36.0,35.8,32.2,28.1,89,77,54,30.07,29.91,13,1,16,0.01
2013-1-7,48.4,36.9,27.3,29.8,25.6,22.2,86,65,38,30.23,30.06,16,2,16,0.00
2013-1-8,51.2,37.3,27.1,33.4,28.0,22.4,85,70,38,30.28,30.17,10,0,10,0.00
2013-1-9,48.9,40.6,31.2,45.1,36.8,28.0,92,87,78,30.35,30.23,5,0,5,0.01
2013-1-10,59.1,51.4,45.9,50.9,46.3,41.3,94,83,66,30.38,30.22,10,1,12,0.00
2013-1-11,57.4,50.7,47.5,51.0,46.4,41.3,91,85,70,30.23,30.00,16,1,20,0.07
2013-1-12,66.8,57.1,49.0,56.8,51.9,46.5,94,84,66,30.09,29.98,20,1,20,0.00
2013-1-13,67.1,59.5,52.0,54.8,51.1,46.4,87,74,50,30.01,29.92,14,1,16,0.03
2013-1-14,59.5,54.5,46.2,55.3,51.1,42.4,91,88,84,30.09,29.94,16,1,23,1.90
2013-1-15,50.7,48.0,45.5,47.9,45.1,42.0,92,90,87,30.03,29.87,11,0,11,1.49
2013-1-16,58.2,50.5,46.8,53.0,47.5,44.3,93,89,76,29.93,29.82,11,0,11,0.40
2013-1-17,50.7,43.1,32.9,48.0,39.9,27.9,91,88,82,30.07,29.70,15,1,20,1.09
2013-1-18,43.2,33.0,27.8,27.8,24.1,19.9,84,71,44,30.31,30.07,23,4,24,0.00
2013-1-19,50.6,35.1,24.6,30.8,25.8,16.2,88,72,26,30.29,30.01,11,0,12,0.00
2013-1-20,52.2,39.3,30.1,33.0,27.7,19.8,84,65,41,30.01,29.92,21,2,21,0.00
2013-1-21,29.2,28.1,27.4,12.1,11.6,11.1,51,50,47,29.87,29.86,11,2,11,0.00
2013-1-22,30.0,23.5,17.4,11.3,3.0,-4.3,57,42,24,30.04,29.85,26,3,28,0.00
2013-1-23,39.0,29.0,22.4,24.9,13.8,1.6,79,54,39,30.11,29.90,15,1,17,0.00
2013-1-24,39.4,30.9,21.6,28.9,14.7,4.4,78,52,31,30.20,29.84,26,3,27,0.00
2013-1-25,34.9,25.1,19.0,33.4,17.6,3.5,94,74,48,30.23,29.87,12,1,14,0.00
2013-1-26,41.4,33.4,27.6,33.3,26.6,22.5,94,77,53,30.18,29.92,22,3,23,0.20
2013-1-27,37.6,29.9,24.2,30.1,24.2,20.4,88,79,66,30.31,30.16,15,1,17,0.30
2013-1-28,60.0,43.8,31.6,44.0,36.7,28.2,88,77,53,30.26,30.08,13,1,15,0.58
2013-1-29,66.3,52.2,38.6,53.7,44.4,35.5,91,77,41,30.11,29.89,13,1,19,0.01
2013-1-30,61.7,56.3,44.1,55.9,51.6,38.2,90,85,78,29.90,29.35,29,2,29,2.58
2013-1-31,44.1,32.5,27.9,38.4,24.4,19.8,88,72,55,29.83,29.37,30,3,32,0.04
2013-2-1,37.6,24.5,17.0,29.5,14.3,7.7,86,65,50,30.14,29.73,26,3,34,0.00
2013-2-2,34.7,26.6,17.1,29.9,19.2,10.0,90,74,47,30.14,29.84,9,0,10,0.04
2013-2-3,35.4,31.3,26.7,31.0,25.7,19.2,89,80,70,29.89,29.74,20,2,23,0.03
2013-2-4,45.4,32.3,21.2,28.8,22.6,15.5,82,69,44,29.93,29.80,13,1,14,0.21
2013-2-5,48.0,38.0,33.1,37.4,31.3,26.7,85,77,52,29.86,29.76,15,0,17,0.00
2013-2-6,53.1,40.5,33.2,34.6,27.3,19.5,85,62,28,30.10,29.85,13,1,17,0.00
2013-2-7,45.4,39.0,34.5,37.4,31.0,22.3,92,74,53,30.11,29.85,12,1,12,0.68
2013-2-8,49.7,40.6,33.7,42.2,35.1,25.9,92,81,57,30.00,29.76,26,2,27,0.08
2013-2-9,52.1,36.9,27.6,27.2,22.3,12.9,77,59,23,30.16,29.97,27,3,27,0.00
2013-2-10,49.6,42.7,35.2,41.8,24.9,12.5,92,52,29,30.23,29.98,21,2,24,0.36
2013-2-11,55.2,48.0,41.0,50.2,41.0,28.6,94,78,46,30.00,29.87,12,1,15,0.03
2013-2-12,51.7,43.1,36.5,35.7,26.3,18.5,83,53,28,30.00,29.78,18,2,23,0.05
2013-2-13,48.6,41.7,37.1,41.6,36.5,30.5,88,82,72,29.79,29.48,20,2,22,0.17
2013-2-17,33.7,27.5,20.4,14.1,11.5,9.3,65,51,38,30.04,29.89,30,4,33,0.00
2013-2-18,48.7,34.3,20.1,26.5,19.2,11.2,79,56,34,30.15,29.97,17,1,22,0.00
2013-2-19,47.6,39.2,31.5,39.4,25.8,13.6,88,60,37,29.97,29.73,33,3,33,0.06
2013-2-20,44.4,33.4,26.7,14.9,9.7,-1.7,56,39,15,30.00,29.87,24,3,25,0.00
2013-2-21,57.8,38.7,22.9,34.6,13.8,-10.2,84,45,7,30.06,29.91,13,1,14,0.25
2013-2-22,44.1,38.5,34.9,38.6,33.7,28.6,88,83,65,30.08,29.91,18,1,18,0.51
2013-2-23,56.7,45.3,37.7,46.7,40.5,34.1,91,84,67,29.93,29.69,6,0,8,0.10
2013-2-24,52.2,41.9,32.5,38.4,28.1,18.7,88,61,28,29.91,29.72,23,2,23,0.00
2013-2-25,46.2,36.2,29.0,26.5,24.2,21.7,80,63,40,29.97,29.85,13,1,15,0.00
2013-2-26,42.4,37.0,33.1,39.1,33.2,25.9,91,86,68,29.86,29.38,20,2,21,0.32
2013-2-27,53.5,41.8,35.8,35.4,31.1,25.9,91,67,40,29.64,29.48,21,1,22,0.01
2013-2-28,37.8,32.8,30.1,30.3,25.6,23.4,82,75,69,29.73,29.56,22,2,26,0.00
2013-3-1,36.6,32.3,29.2,28.9,27.3,25.4,88,82,72,29.76,29.70,19,2,20,0.04
2013-3-2,36.9,32.0,26.5,28.6,25.5,20.2,86,77,66,29.76,29.67,15,2,18,0.04
2013-3-3,31.8,26.5,21.8,20.7,17.2,13.3,83,68,56,29.83,29.74,18,2,21,0.01
2013-3-4,49.1,34.5,24.1,26.5,17.7,8.0,71,53,21,29.94,29.82,17,2,19,0.00
2013-3-5,43.9,36.9,31.3,40.9,32.1,22.8,92,83,64,29.91,29.48,18,1,22,1.16
2013-3-6,33.2,28.0,25.0,29.6,23.5,17.6,90,83,73,29.97,29.52,26,3,28,27.84
2013-3-7,36.7,30.4,26.6,27.4,24.2,21.8,86,78,66,30.09,29.96,23,4,28,0.14
2013-3-13,39.7,34.4,28.5,30.0,23.7,15.7,84,65,43,30.02,29.86,25,2,26,0.01
2013-3-14,43.9,32.7,24.2,19.0,16.2,12.8,68,52,31,30.10,30.00,19,3,26,0.00
2013-3-15,63.8,46.9,30.5,41.9,29.2,16.3,78,53,23,30.04,29.80,27,1,27,0.00
2013-3-16,72.0,60.2,46.3,45.8,42.5,39.2,88,55,32,29.80,29.66,26,3,30,0.01
2013-3-17,69.7,58.7,46.6,47.0,44.6,40.4,79,61,36,29.90,29.74,16,2,30,0.00
2013-3-18,47.4,42.8,37.6,43.1,38.3,33.7,90,84,73,29.92,29.65,16,2,17,0.62
2013-3-19,54.5,44.8,36.5,41.8,28.0,11.6,91,56,23,29.93,29.72,20,2,31,0.04
2013-3-20,52.0,39.7,29.4,30.0,15.4,3.8,83,40,14,29.94,29.68,20,2,31,0.00
2013-3-21,35.9,28.4,20.6,25.2,13.8,9.8,75,55,40,29.78,29.63,23,2,23,0.04
2013-3-22,47.3,33.8,19.9,29.4,15.8,8.1,75,51,21,29.87,29.77,15,1,23,0.00
2013-3-23,52.9,43.2,36.3,40.0,35.3,29.2,84,74,61,29.87,29.72,15,0,17,0.00
2013-3-24,48.5,41.9,35.7,41.7,37.2,32.0,89,84,72,29.77,29.35,13,1,17,0.54
2013-3-25,35.7,31.3,27.6,32.3,26.0,21.8,90,81,68,29.71,29.36,21,1,27,0.04
2013-3-26,36.3,30.0,26.5,28.0,24.7,22.5,90,80,69,30.01,29.71,20,2,27,0.10
2013-3-27,39.4,32.0,28.1,25.3,23.0,20.7,85,69,51,30.11,29.99,19,2,23,0.03
2013-3-28,47.9,37.1,27.8,28.0,23.7,19.9,76,59,42,30.14,30.06,14,1,19,0.01
2013-3-29,54.7,39.0,26.3,35.7,27.4,19.3,84,67,26,30.17,30.09,11,0,14,0.00
2013-3-30,60.2,48.3,38.7,40.3,36.2,32.2,86,66,36,30.10,29.92,15,1,16,0.00
2013-3-31,57.8,50.9,46.5,49.3,45.6,36.7,89,82,58,29.92,29.74,10,0,16,0.63
2013-4-1,58.3,48.9,38.3,46.6,38.9,32.7,89,70,48,29.87,29.75,17,1,18,0.01
2013-4-2,55.6,45.0,35.4,33.5,23.7,11.8,72,46,20,30.02,29.86,17,2,19,0.00
2013-4-3,59.1,44.7,30.2,29.4,19.7,2.2,70,40,10,30.12,30.00,14,1,19,0.00
2013-4-4,44.0,38.7,34.9,34.6,27.2,13.8,91,67,31,30.11,29.80,9,0,14,0.59
2013-4-5,55.6,43.9,37.0,40.6,35.8,33.1,92,75,45,29.95,29.77,19,2,20,0.13
2013-4-6,64.4,50.2,33.5,38.3,31.4,25.7,86,54,27,30.09,29.95,15,2,20,0.00
2013-4-7,68.5,55.1,41.6,42.0,37.8,31.2,76,54,33,30.08,29.97,12,1,18,0.00
2013-4-8,74.7,59.2,43.2,49.3,43.6,38.1,84,59,34,30.06,29.94,14,1,15,0.00
2013-4-9,79.9,64.5,47.7,52.0,47.3,41.4,85,58,28,30.13,30.01,17,2,17,0.00
2013-4-10,83.5,68.0,53.6,53.6,49.0,40.1,82,55,24,30.05,29.89,14,2,17,0.00
2013-4-11,76.9,66.2,54.3,59.2,51.5,45.5,83,61,33,29.90,29.63,20,2,22,0.89
2013-4-12,69.2,60.9,50.8,59.2,48.1,36.7,87,65,34,29.80,29.54,16,1,22,0.68
2013-4-13,68.8,55.8,45.4,38.9,34.5,23.9,70,48,19,29.96,29.78,18,1,19,0.00
2013-4-14,69.5,55.8,40.1,47.8,37.3,30.2,82,54,26,30.00,29.86,18,2,19,0.00
2013-4-15,67.0,58.5,53.0,52.9,49.8,46.6,85,73,57,30.11,29.87,15,1,19,0.03
2013-4-16,80.0,66.6,56.1,53.5,51.8,47.7,83,61,33,30.19,30.10,13,1,16,0.00
2013-4-17,70.5,63.0,57.1,59.6,55.4,50.5,87,77,57,30.20,30.05,11,0,14,0.44
2013-4-18,71.0,65.0,58.3,57.9,53.8,49.1,81,68,47,30.06,29.87,18,2,21,0.04
2013-4-19,65.0,59.1,45.0,59.9,52.9,34.8,87,80,67,29.87,29.63,20,2,23,1.00
2013-4-20,58.4,46.8,35.5,35.5,30.7,26.6,73,55,33,30.17,29.85,18,2,23,0.00
2013-4-21,60.6,47.8,34.8,34.2,30.2,23.5,83,54,26,30.31,30.16,15,1,20,0.00
2013-4-22,63.2,50.5,37.4,36.9,33.5,29.2,83,55,33,30.28,30.09,13,2,17,0.00
2013-4-23,72.4,55.6,36.6,41.4,35.3,24.5,80,50,17,30.15,29.98,14,1,17,0.00
2013-4-24,74.0,59.5,45.8,57.0,46.4,40.3,83,64,33,30.02,29.89,16,1,18,0.05
2013-4-25,67.8,53.6,41.0,44.9,30.3,-18.5,78,48,3,30.23,30.02,14,2,19,0.05
2013-4-26,67.8,53.6,36.0,42.8,32.2,24.3,79,49,22,30.30,30.19,13,1,18,0.00
2013-4-27,57.7,53.3,50.7,49.4,46.3,42.8,86,77,62,30.28,30.12,9,0,15,0.23
2013-4-28,53.4,50.8,47.6,49.6,46.3,40.8,91,85,71,30.13,29.90,13,0,14,1.25
2013-4-29,73.0,60.7,49.8,53.6,49.7,44.4,91,70,37,29.96,29.84,13,1,14,0.02
2013-4-30,73.7,63.1,51.8,54.1,51.3,47.9,90,68,43,30.09,29.90,16,1,16,0.00
2013-5-1,65.6,59.9,55.7,52.8,49.3,46.1,80,69,51,30.20,30.08,11,1,16,0.00
2013-5-2,66.7,58.6,53.9,53.3,50.4,47.4,85,75,59,30.19,30.11,10,1,14,0.04
2013-5-3,61.9,56.7,53.1,48.7,45.5,40.4,79,67,47,30.13,29.97,17,1,19,0.00
2013-5-4,57.9,52.3,47.4,46.1,42.0,31.9,84,68,55,29.99,29.84,13,2,19,0.17
2013-5-5,54.1,50.2,47.0,48.7,45.6,42.2,87,84,76,29.89,29.67,28,2,28,2.92
2013-5-6,63.9,54.6,49.1,50.5,46.1,35.2,89,75,35,29.80,29.67,18,1,22,0.80
2013-5-7,66.3,53.0,43.8,50.4,45.5,39.4,86,77,43,29.85,29.76,12,0,22,0.25
2013-5-8,65.1,57.1,51.5,53.3,50.5,47.8,89,79,57,29.96,29.82,17,1,17,0.09
2013-5-9,76.9,61.7,46.8,54.7,49.2,43.0,89,67,36,30.03,29.93,14,1,17,0.24
2013-5-10,78.2,62.5,50.4,59.4,52.6,45.3,84,72,40,30.05,29.89,8,0,14,0.08
2013-5-11,73.0,62.9,55.8,59.3,55.1,49.7,87,76,54,29.92,29.76,10,0,11,0.33
2013-5-12,64.0,55.4,43.5,50.8,40.1,31.6,80,58,32,29.97,29.81,17,2,20,0.00
2013-5-13,63.3,51.1,38.6,35.5,31.3,24.5,81,50,24,30.08,29.96,19,1,21,0.00
2013-5-14,76.8,58.1,37.8,48.4,38.3,32.0,81,53,24,30.13,29.97,12,1,21,0.00
2013-5-15,85.8,69.2,53.6,54.3,49.6,42.1,86,55,23,30.06,29.94,16,1,18,0.00
2013-5-16,78.2,65.3,54.2,55.4,50.2,46.3,80,60,37,30.00,29.93,7,0,18,0.00
2013-5-17,79.3,65.7,52.0,61.5,52.0,46.0,82,63,38,30.06,29.97,12,1,12,0.01
2013-5-18,67.8,63.9,60.2,60.3,57.2,53.3,86,79,68,30.06,29.99,12,1,12,0.49
2013-5-19,78.3,66.1,60.5,64.3,59.2,55.3,87,79,52,30.05,29.94,10,0,12,0.51
2013-5-20,81.4,69.3,58.6,63.5,58.6,54.5,89,71,43,30.08,29.96,8,0,11,0.06
2013-5-21,86.4,72.5,62.2,63.7,58.7,49.2,85,65,28,30.03,29.89,14,1,14,0.99
2013-5-22,77.8,65.2,59.2,65.4,58.3,47.5,86,79,56,29.97,29.85,11,0,14,0.74
2013-5-23,78.7,66.3,58.4,61.7,56.0,50.6,88,72,38,29.90,29.79,12,1,14,0.08
2013-5-24,66.8,58.7,51.0,53.3,44.2,35.2,84,61,34,30.13,29.85,14,1,19,0.02
2013-5-25,75.6,58.7,42.5,45.0,38.4,29.2,81,51,20,30.20,30.12,14,1,19,0.00
2013-5-26,75.3,62.5,53.1,50.2,44.6,33.6,75,55,27,30.19,30.11,14,1,16,0.00
2013-5-27,79.2,65.3,49.4,55.6,50.4,43.5,83,61,39,30.19,30.07,11,1,16,0.00
2013-5-28,80.5,68.8,56.9,59.8,55.3,51.0,85,64,40,30.16,30.08,18,1,18,0.00
2013-5-29,85.3,71.0,57.3,59.8,54.9,39.5,85,60,23,30.18,30.10,14,1,18,0.00
2013-5-30,82.2,70.6,58.3,59.8,55.9,52.6,83,62,38,30.22,30.11,13,1,18,0.00
2013-5-31,82.9,71.4,60.1,59.3,56.4,54.2,84,62,38,30.17,30.06,12,1,18,0.00
2013-6-1,83.2,72.9,62.9,62.3,58.1,55.0,83,62,42,30.08,29.96,14,1,18,0.00
2013-6-2,71.3,67.8,63.3,64.4,61.1,57.3,84,79,68,30.01,29.85,9,0,18,0.88
2013-6-3,81.3,70.1,62.3,63.2,58.0,52.1,87,68,38,29.95,29.83,12,1,16,0.01
2013-6-4,78.9,69.6,59.9,60.5,56.9,54.5,84,66,46,30.05,29.92,14,1,16,0.00
2013-6-5,79.7,70.1,61.8,61.3,59.0,55.3,84,69,49,30.05,29.93,14,1,16,0.16
2013-6-6,79.1,70.3,64.3,63.9,61.7,59.3,85,75,55,29.94,29.74,9,0,16,0.64
2013-6-7,76.1,68.6,64.2,65.1,61.4,59.6,86,78,58,29.79,29.65,10,0,17,0.48
2013-6-8,80.6,70.4,60.0,62.6,58.6,54.1,85,68,40,30.05,29.79,7,0,17,0.48
2013-6-9,80.5,69.0,62.0,67.0,60.8,51.8,86,76,49,30.11,30.00,12,1,16,1.15
2013-6-10,78.3,70.1,64.1,64.5,59.9,50.0,88,72,39,30.00,29.85,14,1,18,0.76
2013-6-11,80.5,69.7,60.4,60.4,58.3,55.8,87,69,44,30.00,29.89,15,1,18,0.06
2013-6-12,88.3,75.1,62.1,67.6,62.9,56.7,88,68,43,30.01,29.92,14,1,16,0.00
2013-6-13,86.3,71.9,65.2,65.4,61.4,56.0,84,71,39,29.92,29.71,21,1,26,0.17
2013-6-14,79.2,68.3,59.4,56.6,52.9,47.4,78,60,34,30.02,29.79,11,1,26,0.00
2013-6-15,82.7,68.1,52.5,59.5,53.0,46.7,84,62,35,30.10,30.01,12,0,14,0.00
2013-6-16,84.1,71.9,59.8,63.5,58.6,53.9,83,65,39,30.10,29.99,9,0,13,0.00
2013-6-17,79.8,71.8,66.3,65.4,62.8,59.5,84,74,51,30.01,29.91,8,0,11,0.12
2013-6-18,74.0,68.4,63.4,65.3,62.3,58.2,84,81,68,29.92,29.79,10,0,10,0.50
2013-6-19,80.5,68.2,60.1,63.7,59.2,55.7,86,74,45,30.09,29.89,8,0,10,0.64
2013-6-20,79.9,69.3,59.3,63.1,58.8,54.8,87,71,47,30.20,30.07,10,1,12,0.01
2013-6-21,82.8,71.3,60.7,61.5,57.9,53.3,85,65,39,30.23,30.14,11,1,13,0.00
2013-6-22,85.8,72.1,57.6,60.5,55.8,49.9,84,60,31,30.20,30.08,8,0,13,0.00
2013-6-23,81.0,70.5,59.8,63.5,59.3,53.8,84,69,45,30.19,30.10,7,0,10,0.02
2013-6-24,85.8,72.6,62.0,67.1,62.0,56.6,84,71,40,30.19,30.07,8,0,10,0.94
2013-6-25,86.6,73.0,63.6,66.9,62.8,58.0,85,72,40,30.13,29.99,17,0,19,0.04
2013-6-26,84.5,73.7,66.2,67.0,63.6,60.0,85,72,50,30.03,29.89,11,0,19,0.01
2013-6-27,79.7,70.6,64.5,68.1,63.6,59.2,86,79,64,29.93,29.74,10,0,11,0.30
2013-6-28,85.1,73.1,66.0,66.7,63.6,59.5,87,74,43,29.79,29.63,14,1,16,0.10
2013-6-29,83.8,72.1,61.5,63.4,57.7,47.8,86,64,30,29.69,29.62,9,0,16,0.24
2013-6-30,85.8,71.4,59.4,64.0,58.2,51.0,83,66,34,29.79,29.68,9,1,12,0.04
2013-7-1,80.4,70.9,64.4,64.7,61.4,59.2,85,73,50,29.92,29.76,13,1,13,1.23
2013-7-2,82.2,71.4,64.4,66.6,62.0,59.5,87,74,48,30.09,29.90,11,1,13,0.13
2013-7-3,76.0,68.1,62.5,66.9,62.7,58.1,88,83,68,30.20,30.06,11,1,14,6.48
2013-7-4,72.9,66.5,62.1,66.6,62.1,57.9,90,86,77,30.18,30.12,13,1,14,2.50
2013-7-5,82.2,71.7,66.0,64.6,62.7,60.9,87,75,50,30.20,30.13,16,1,19,0.06
2013-7-6,79.0,71.6,67.1,67.0,64.0,61.9,88,77,59,30.18,30.09,11,2,19,0.95
2013-7-7,80.5,72.2,67.9,67.6,65.3,63.7,88,79,60,30.14,30.06,9,0,15,0.24
2013-7-8,86.5,75.0,66.7,66.2,62.9,55.7,86,69,38,30.17,30.09,8,0,12,0.00
2013-7-9,87.3,75.4,66.4,68.4,63.5,59.2,85,68,39,30.15,30.04,8,0,10,1.12
2013-7-10,85.3,74.0,68.4,69.6,65.3,47.2,85,75,41,30.10,29.93,17,0,17,0.39
2013-7-11,80.3,72.7,68.4,67.0,64.8,62.6,86,77,60,29.95,29.86,7,0,17,0.00
2013-7-12,85.3,73.2,66.7,65.5,61.7,55.3,85,69,39,30.00,29.87,10,0,13,0.22
2013-7-13,78.2,70.6,63.5,64.2,61.1,58.6,85,73,53,30.08,29.97,9,0,13,0.06
2013-7-14,78.0,70.3,68.3,65.8,64.3,62.4,86,81,61,30.25,30.06,14,1,17,1.19
2013-7-15,83.7,74.4,67.3,64.9,62.9,59.3,86,69,46,30.31,30.24,11,1,17,0.01
2013-7-16,89.1,74.5,64.8,70.3,63.6,58.7,85,71,40,30.33,30.24,9,0,9,0.06
2013-7-17,85.3,72.0,66.7,70.5,64.3,61.4,85,77,52,30.29,30.21,12,0,18,2.22
2013-7-19,78.5,75.9,73.3,67.0,66.4,65.5,77,72,67,30.05,29.99,8,0,8,0.00
2013-7-20,82.3,73.5,69.0,68.7,65.7,63.0,83,77,57,30.03,29.92,14,0,16,0.37
2013-7-21,83.7,73.3,68.4,69.1,65.6,63.7,86,77,54,30.01,29.91,10,0,11,0.07
2013-7-22,83.0,73.6,67.1,67.4,64.6,61.6,84,74,51,29.98,29.80,13,0,15,1.57
2013-7-23,83.6,73.6,67.3,66.6,63.5,59.1,86,72,46,29.89,29.78,15,1,15,0.05
2013-7-24,84.0,74.0,66.0,66.4,62.8,57.0,86,70,41,29.85,29.77,10,0,11,0.00
2013-7-25,84.9,72.4,63.5,63.8,59.3,55.7,85,66,39,30.02,29.84,10,0,13,0.00
2013-7-26,82.7,74.9,61.5,63.8,61.1,55.9,84,63,47,30.06,29.98,11,1,14,0.00
2013-7-27,79.4,71.4,66.9,66.1,63.1,58.9,85,76,50,30.00,29.87,7,0,7,2.00
2013-7-28,81.2,70.9,64.1,64.9,61.2,57.1,87,73,48,30.01,29.88,10,0,10,0.05
2013-7-29,83.0,69.0,58.7,60.2,55.2,43.9,85,65,33,30.18,30.00,10,0,10,0.00
2013-7-30,79.7,68.3,57.2,63.9,57.7,51.3,83,70,49,30.20,30.12,9,0,9,0.00
2013-7-31,73.8,68.1,64.2,64.2,61.8,59.2,86,80,68,30.15,29.94,9,0,10,0.38
2013-8-1,81.0,71.9,66.4,66.8,63.8,60.0,88,77,52,29.96,29.89,8,0,11,0.09
2013-8-2,83.3,71.1,61.3,64.1,59.8,56.0,86,69,44,30.03,29.93,8,0,9,0.00
2013-8-3,83.2,72.3,63.7,64.2,60.9,58.1,84,69,45,30.03,29.96,10,0,10,0.00
2013-8-4,81.6,72.9,65.4,64.7,60.9,56.0,86,68,42,30.04,29.94,4,0,8,0.07
2013-8-5,81.0,70.7,60.5,65.7,60.1,55.0,84,70,50,30.04,29.95,8,0,10,0.08
2013-8-6,83.2,73.3,65.2,64.9,62.4,58.1,84,70,46,30.02,29.93,10,0,11,0.01
2013-8-7,75.2,70.9,68.3,66.3,64.0,62.2,83,79,71,30.04,29.97,13,1,13,0.18
2013-8-8,80.5,72.4,66.2,70.6,65.5,61.7,86,79,61,30.03,29.99,10,0,11,0.92
2013-8-9,83.8,73.1,67.6,69.3,65.9,63.2,88,79,56,30.07,29.99,10,0,11,0.82
2013-8-10,82.5,72.8,67.7,71.5,65.8,63.3,87,79,58,30.11,30.04,9,0,9,0.40
2013-8-11,83.7,73.5,67.1,69.4,65.2,62.8,87,76,54,30.14,30.04,9,0,10,0.02
2013-8-12,83.8,73.8,67.8,69.4,65.6,62.7,87,76,54,30.09,29.97,8,0,8,0.01
2013-8-13,83.5,72.5,67.9,67.5,64.0,61.9,87,76,50,29.97,29.84,12,1,14,0.10
2013-8-14,76.3,68.4,61.4,63.0,56.9,51.0,84,68,45,30.03,29.88,14,1,16,0.01
2013-8-15,71.3,63.6,5.7,60.9,53.3,0.0,82,70,53,30.10,30.01,10,1,12,0.49
2013-8-16,74.1,64.3,55.9,57.4,53.9,45.9,85,70,50,30.11,30.03,12,1,13,1.26
2013-8-17,73.2,65.1,58.0,61.1,56.3,50.8,84,74,55,30.13,30.06,8,0,8,0.04
2013-8-18,77.5,67.7,62.5,63.9,60.9,57.9,86,79,57,30.16,30.07,6,0,6,0.75
2013-8-19,75.8,68.8,64.3,64.4,62.3,60.0,88,80,63,30.15,30.05,5,0,5,0.50
2013-8-20,80.3,70.1,62.7,65.3,62.1,58.3,87,77,55,30.17,30.07,10,0,11,0.09
2013-8-21,76.4,69.8,64.7,67.0,63.3,51.1,87,80,51,30.21,30.09,8,0,8,0.03
2013-8-22,83.1,73.0,66.3,65.3,62.8,59.6,87,72,49,30.15,30.02,9,0,10,0.01
2013-8-23,78.9,69.3,64.3,65.9,62.2,59.0,86,79,59,30.07,29.99,9,0,9,0.17
2013-8-24,79.3,69.9,60.9,62.8,57.3,50.2,86,67,39,30.27,30.07,13,0,13,0.00
2013-8-25,77.8,65.8,55.1,59.0,53.9,50.0,85,68,42,30.33,30.24,9,0,12,0.00
2013-8-26,81.5,67.3,56.6,61.7,56.5,50.9,85,70,44,30.29,30.11,10,0,10,7.68
2013-8-27,82.1,69.2,59.1,64.9,59.4,53.8,86,72,51,30.13,30.01,10,1,10,0.01
2013-8-28,84.0,78.6,71.6,69.4,65.2,38.8,79,64,24,30.04,29.94,6,1,9,6.74
2013-8-29,87.1,78.7,69.6,66.6,63.1,-17.0,79,62,2,30.00,29.92,9,0,10,0.00
2013-8-30,83.0,77.2,69.2,66.2,64.7,62.3,83,66,51,30.02,29.92,10,0,11,0.00
2013-8-31,82.8,74.6,69.4,68.7,65.9,63.0,85,75,57,29.96,29.85,10,0,12,0.23
2013-9-1,85.1,73.1,66.8,68.2,64.5,61.9,85,75,52,29.91,29.81,23,0,29,0.10
2013-9-2,82.6,72.8,65.4,66.3,63.2,60.1,86,73,53,29.91,29.82,7,0,7,0.00
2013-9-3,81.2,71.2,64.7,64.0,61.6,58.0,86,73,49,29.99,29.84,12,0,14,0.21
2013-9-4,83.0,69.6,59.9,63.1,58.0,53.6,85,69,39,30.11,29.98,7,0,8,0.00
2013-9-5,79.8,66.6,57.2,60.0,55.9,51.6,85,70,40,30.14,30.07,12,0,12,0.01
2013-9-6,80.5,66.4,54.0,61.3,55.4,49.0,88,70,42,30.16,30.05,9,0,10,0.00
2013-9-7,80.5,68.4,61.4,61.8,58.1,54.1,85,71,42,30.10,29.98,11,0,13,0.01
2013-9-8,78.2,69.2,61.9,64.2,60.8,56.7,88,75,55,30.01,29.94,7,0,8,0.00
2013-9-9,82.0,70.5,61.7,64.1,60.5,56.4,86,72,48,30.13,30.00,13,1,13,0.00
2013-9-10,84.3,71.6,61.6,64.4,60.5,56.1,85,70,44,30.23,30.13,11,0,11,0.01
2013-9-11,85.5,72.3,63.7,67.6,62.3,52.5,85,72,47,30.21,30.08,9,0,11,0.03
2013-9-12,80.4,71.5,65.8,66.7,63.1,60.0,85,75,57,30.09,29.87,9,0,11,0.15
2013-9-13,74.7,65.8,54.3,61.5,55.7,47.8,86,71,46,29.89,29.81,10,0,13,0.01
2013-9-14,74.8,58.3,48.9,53.7,48.0,-17.6,86,71,5,30.05,29.88,8,0,8,0.01
2013-9-15,74.5,62.7,52.9,58.2,53.3,48.5,87,73,51,30.15,30.05,11,0,12,0.00
2013-9-16,78.9,65.6,57.4,59.7,55.7,51.6,86,72,41,30.14,30.07,12,0,12,0.01
2013-9-17,68.2,62.9,59.4,57.6,52.8,47.5,83,70,54,30.24,30.13,9,0,10,0.00
2013-9-18,68.2,61.7,56.9,57.7,53.6,50.0,85,75,58,30.21,30.10,9,0,9,0.02
2013-9-19,74.5,65.1,61.1,61.8,58.9,56.9,87,81,62,30.13,30.05,8,0,8,0.01
2013-9-20,80.4,69.3,61.9,63.9,60.1,57.6,87,74,47,30.06,29.89,11,0,12,0.00
2013-9-21,68.4,63.9,56.6,61.7,58.8,52.7,87,84,79,29.90,29.67,16,0,16,0.60
2013-9-22,72.4,60.1,51.9,54.3,51.4,47.2,89,75,48,29.87,29.70,6,1,10,0.01
2013-9-23,74.8,59.9,48.2,56.2,50.6,43.7,89,73,48,29.99,29.87,11,0,12,0.00
2013-9-24,76.3,63.9,53.9,57.3,54.2,48.4,86,72,39,30.02,29.87,10,0,10,0.00
2013-9-25,62.9,60.4,58.7,57.9,55.9,54.0,88,85,81,29.89,29.79,8,0,8,0.50
2013-9-26,70.7,61.8,55.2,57.5,54.8,49.5,89,79,59,30.00,29.83,8,0,9,0.00
2013-9-27,74.8,60.7,51.2,57.4,52.3,47.2,88,75,49,30.12,30.00,7,0,7,0.01
2013-9-28,69.5,60.9,54.7,54.6,52.2,49.5,86,74,56,30.18,30.09,8,0,9,0.00
2013-9-29,71.0,61.3,53.7,56.8,51.6,31.5,83,71,33,30.10,29.96,8,0,8,0.00
2013-9-30,69.0,61.5,56.1,57.2,53.6,50.7,84,76,55,30.02,29.95,6,0,6,0.00
2013-10-1,75.0,60.9,51.5,56.9,52.0,46.8,88,74,47,30.11,30.01,9,0,9,0.00
2013-10-2,76.5,61.9,52.7,57.8,52.5,41.8,87,73,43,30.14,30.04,10,0,11,0.00
2013-10-3,76.2,62.5,54.5,60.8,54.7,50.0,86,77,44,30.11,30.03,6,0,6,0.01
2013-10-4,79.0,64.7,56.6,61.6,56.7,52.1,87,76,48,30.14,30.05,7,0,7,0.00
2013-10-5,79.2,66.2,58.2,62.2,56.8,53.1,87,74,44,30.13,30.01,11,0,11,0.00
2013-10-6,75.8,66.2,56.7,59.6,56.8,52.4,89,73,54,30.03,29.84,17,1,17,0.01
2013-10-7,67.7,60.6,50.1,60.7,53.1,44.9,87,77,56,29.97,29.75,15,1,16,1.36
2013-10-8,66.2,53.7,46.4,48.0,44.5,32.5,88,73,46,30.14,29.97,10,0,12,0.01
2013-10-9,71.3,54.5,42.6,50.8,44.3,21.6,87,71,43,30.15,30.04,8,0,8,26.95
2013-10-10,71.2,54.7,42.4,50.1,44.8,31.2,89,72,42,30.07,29.97,13,1,14,0.01
2013-10-11,72.5,58.4,47.6,52.2,47.9,43.1,90,71,38,30.00,29.90,16,1,17,0.00
2013-10-12,70.0,60.5,53.5,57.5,53.4,47.8,86,78,59,30.05,29.93,9,0,10,0.01
2013-10-13,70.5,63.1,59.1,60.2,57.2,50.5,87,81,63,30.16,30.05,8,0,8,0.07
2013-10-14,68.8,61.4,51.2,57.8,54.8,44.9,88,80,59,30.18,30.08,10,0,11,7.99
2013-10-24,42.5,41.7,40.6,35.4,33.9,32.7,81,74,70,30.05,30.02,12,1,12,0.01
2013-10-25,44.2,36.8,29.5,35.2,27.4,23.4,82,69,50,30.23,30.05,17,2,18,0.02
2013-10-26,56.9,39.9,24.1,39.9,25.4,0.0,85,61,20,30.20,29.95,10,0,10,0.00
2013-10-27,65.3,54.1,47.2,46.4,40.3,35.1,75,60,41,30.03,29.94,13,1,15,0.00
2013-10-28,59.5,54.1,8.3,49.4,47.3,2.3,86,78,30,30.18,30.02,3,0,4,0.01
2013-10-29,65.2,55.5,47.0,50.5,46.7,31.2,89,74,47,30.25,30.15,9,0,10,0.00
2013-10-30,70.7,59.7,54.0,53.5,50.2,26.0,85,72,30,30.20,30.09,13,0,13,8.11
2013-10-31,62.9,58.5,5.3,54.9,50.6,-1.3,89,75,30,30.10,29.80,14,1,16,3.03
2013-11-1,72.7,62.0,49.6,56.4,48.6,33.4,86,65,26,29.74,29.57,19,1,23,0.12
2013-11-2,56.9,48.3,42.5,43.4,38.6,33.5,86,70,43,29.91,29.68,16,1,17,0.02
2013-11-3,55.0,43.8,36.3,35.5,32.8,30.4,80,66,41,30.24,29.90,15,2,16,0.00
2013-11-4,52.6,42.6,33.5,31.5,29.1,25.0,84,61,38,30.35,30.22,14,1,15,0.00
2013-11-5,57.2,45.6,35.3,44.6,32.8,21.9,86,64,26,30.38,30.28,12,1,12,0.00
2013-11-6,57.7,51.3,47.8,47.8,46.2,43.0,89,83,62,30.30,30.21,16,1,18,3.09
2013-11-11,59.9,46.7,37.8,28.9,23.7,9.7,68,45,16,30.14,30.04,10,1,10,0.00
2013-11-12,47.5,35.3,25.4,35.2,24.7,14.8,72,65,52,30.29,29.97,24,2,24,0.00
2013-11-13,36.2,25.1,21.9,18.4,15.2,-10.3,75,66,28,30.35,30.27,20,3,20,6.00
2013-11-14,54.7,35.1,20.1,25.9,17.5,9.4,83,56,17,30.30,30.15,13,1,13,4.90
2013-11-24,32.7,24.4,19.5,11.7,8.6,-15.4,69,52,20,30.29,30.20,29,4,29,6.72
2013-11-25,19.9,19.6,19.3,11.6,11.0,-15.8,72,69,67,30.28,30.27,0,0,0,7.07
2013-12-16,49.6,39.1,32.6,31.3,28.7,24.4,84,68,38,30.03,29.94,14,1,15,0.01
2013-12-17,53.9,40.0,31.4,37.1,29.2,21.8,87,67,42,30.00,29.80,27,2,30,0.03
2013-12-18,42.9,32.4,27.2,22.8,17.4,3.8,71,56,21,30.13,29.95,21,2,21,0.00
2013-12-19,59.4,38.8,24.8,30.9,23.6,16.2,80,57,26,30.16,30.05,9,0,10,0.00
2013-12-20,59.3,44.3,33.2,37.3,31.4,26.0,77,62,37,30.09,29.98,7,0,7,0.00
2013-12-21,62.3,54.5,41.1,56.9,49.6,35.5,93,84,73,30.01,29.87,26,1,26,0.04
2013-12-22,63.1,57.7,54.7,57.4,53.8,51.6,92,87,70,30.00,29.83,20,1,24,2.08
2013-12-23,56.0,45.5,32.9,53.8,40.7,26.4,92,83,73,30.08,29.89,17,3,18,0.55
2013-12-24,33.2,28.3,21.5,26.7,20.4,14.4,80,72,60,30.21,30.06,22,2,22,0.00
2013-12-25,37.1,25.5,17.5,17.7,13.9,6.9,83,64,36,30.27,30.14,11,1,12,0.00
2013-12-26,45.2,29.6,20.5,25.0,20.6,15.4,85,71,43,30.20,30.10,14,1,14,0.00
2013-12-27,47.1,31.1,22.5,26.5,22.1,18.6,86,71,38,30.30,30.18,10,0,10,0.00
2013-12-28,43.2,34.9,22.9,40.1,28.6,18.6,94,79,50,30.26,29.95,8,0,9,0.19
2013-12-29,47.4,41.8,38.4,43.7,38.2,34.3,94,87,79,29.94,29.66,16,1,17,0.27
2013-12-30,41.2,38.6,34.2,36.6,33.6,29.3,86,82,74,30.00,29.84,13,0,17,0.00
2013-12-31,38.6,32.3,26.5,29.7,22.1,17.7,82,67,47,30.20,29.97,22,1,22,0.00
2014-1-1,42.8,31.2,22.7,27.6,23.3,18.5,84,73,48,30.19,29.96,9,1,14,0.00
2014-1-2,40.3,30.7,19.3,38.2,26.9,14.2,93,86,78,29.96,29.52,21,2,28,0.14